sensor_id;sensor_type;location;lat;lon;timestamp;pressure;altitude;pressure_sealevel;temperature;humidity
17260;BME280;8746;49.230;9.220;2023-07-13T00:01:46;99785.38;;;19.79;65.92
17260;BME280;8746;49.230;9.220;2023-07-13T00:04:15;99785.50;;;19.66;66.02
17260;BME280;8746;49.230;9.220;2023-07-13T00:06:42;99786.09;;;19.69;65.96
17260;BME280;8746;49.230;9.220;2023-07-13T00:09:13;99791.75;;;19.55;65.87
17260;BME280;8746;49.230;9.220;2023-07-13T00:11:39;99796.09;;;19.56;66.62
17260;BME280;8746;49.230;9.220;2023-07-13T00:14:04;99799.38;;;19.48;66.84
17260;BME280;8746;49.230;9.220;2023-07-13T00:16:30;99805.00;;;19.45;66.23
17260;BME280;8746;49.230;9.220;2023-07-13T00:18:55;99798.31;;;19.40;65.82
17260;BME280;8746;49.230;9.220;2023-07-13T00:21:21;99809.00;;;19.40;66.38
17260;BME280;8746;49.230;9.220;2023-07-13T00:23:46;99809.22;;;19.36;66.19
17260;BME280;8746;49.230;9.220;2023-07-13T00:26:12;99800.38;;;19.36;66.17
17260;BME280;8746;49.230;9.220;2023-07-13T00:28:37;99792.72;;;19.31;67.11
17260;BME280;8746;49.230;9.220;2023-07-13T00:31:03;99797.44;;;19.28;66.03
17260;BME280;8746;49.230;9.220;2023-07-13T00:33:28;99795.38;;;19.31;67.47
17260;BME280;8746;49.230;9.220;2023-07-13T00:35:55;99797.31;;;19.18;66.44
17260;BME280;8746;49.230;9.220;2023-07-13T00:38:21;99801.22;;;19.14;66.91
17260;BME280;8746;49.230;9.220;2023-07-13T00:40:47;99794.38;;;19.10;66.64
17260;BME280;8746;49.230;9.220;2023-07-13T00:43:20;99791.72;;;18.98;67.59
17260;BME280;8746;49.230;9.220;2023-07-13T00:48:15;99776.06;;;19.05;66.42
17260;BME280;8746;49.230;9.220;2023-07-13T00:50:45;99784.66;;;18.97;66.96
17260;BME280;8746;49.230;9.220;2023-07-13T00:53:12;99784.91;;;18.94;66.85
17260;BME280;8746;49.230;9.220;2023-07-13T00:55:38;99788.56;;;18.93;67.19
17260;BME280;8746;49.230;9.220;2023-07-13T00:58:05;99789.84;;;18.87;67.90
17260;BME280;8746;49.230;9.220;2023-07-13T01:00:34;99790.78;;;18.75;66.62
17260;BME280;8746;49.230;9.220;2023-07-13T01:03:00;99781.44;;;18.69;66.89
17260;BME280;8746;49.230;9.220;2023-07-13T01:05:30;99781.53;;;18.68;66.83
17260;BME280;8746;49.230;9.220;2023-07-13T01:07:56;99781.53;;;18.56;67.25
17260;BME280;8746;49.230;9.220;2023-07-13T01:10:23;99792.22;;;18.56;67.21
17260;BME280;8746;49.230;9.220;2023-07-13T01:12:48;99779.81;;;18.55;67.21
17260;BME280;8746;49.230;9.220;2023-07-13T01:15:33;99785.88;;;18.46;66.65
17260;BME280;8746;49.230;9.220;2023-07-13T01:17:59;99790.22;;;18.47;66.70
17260;BME280;8746;49.230;9.220;2023-07-13T01:20:25;99790.59;;;18.42;66.54
17260;BME280;8746;49.230;9.220;2023-07-13T01:22:50;99793.97;;;18.45;67.17
17260;BME280;8746;49.230;9.220;2023-07-13T01:25:16;99796.56;;;18.46;66.46
17260;BME280;8746;49.230;9.220;2023-07-13T01:27:41;99807.88;;;18.50;66.39
17260;BME280;8746;49.230;9.220;2023-07-13T01:30:07;99804.44;;;18.48;66.35
17260;BME280;8746;49.230;9.220;2023-07-13T01:32:32;99800.53;;;18.40;66.49
17260;BME280;8746;49.230;9.220;2023-07-13T01:34:59;99787.66;;;18.34;66.07
17260;BME280;8746;49.230;9.220;2023-07-13T01:37:25;99788.50;;;18.35;66.03
17260;BME280;8746;49.230;9.220;2023-07-13T01:39:51;99800.25;;;18.32;66.15
17260;BME280;8746;49.230;9.220;2023-07-13T01:42:17;99800.03;;;18.35;66.07
17260;BME280;8746;49.230;9.220;2023-07-13T01:44:42;99795.84;;;18.20;66.16
17260;BME280;8746;49.230;9.220;2023-07-13T01:47:08;99793.66;;;18.25;66.53
17260;BME280;8746;49.230;9.220;2023-07-13T01:49:34;99800.56;;;18.16;66.63
17260;BME280;8746;49.230;9.220;2023-07-13T01:51:59;99803.38;;;18.26;66.72
17260;BME280;8746;49.230;9.220;2023-07-13T01:54:24;99809.44;;;18.17;66.61
17260;BME280;8746;49.230;9.220;2023-07-13T01:56:50;99803.22;;;18.16;66.70
17260;BME280;8746;49.230;9.220;2023-07-13T01:59:15;99811.69;;;18.10;67.33
17260;BME280;8746;49.230;9.220;2023-07-13T02:01:41;99802.31;;;18.04;67.43
17260;BME280;8746;49.230;9.220;2023-07-13T02:04:06;99816.72;;;18.02;67.96
17260;BME280;8746;49.230;9.220;2023-07-13T02:06:32;99814.19;;;18.00;68.01
17260;BME280;8746;49.230;9.220;2023-07-13T02:08:58;99808.72;;;18.02;69.32
17260;BME280;8746;49.230;9.220;2023-07-13T02:11:24;99815.13;;;17.99;69.28
17260;BME280;8746;49.230;9.220;2023-07-13T02:13:50;99818.06;;;17.96;68.77
17260;BME280;8746;49.230;9.220;2023-07-13T02:16:15;99818.56;;;17.88;68.58
17260;BME280;8746;49.230;9.220;2023-07-13T02:18:41;99822.63;;;17.81;69.30
17260;BME280;8746;49.230;9.220;2023-07-13T02:21:06;99828.22;;;17.78;69.16
17260;BME280;8746;49.230;9.220;2023-07-13T02:23:31;99823.25;;;17.85;69.62
17260;BME280;8746;49.230;9.220;2023-07-13T02:25:58;99835.66;;;17.86;70.88
17260;BME280;8746;49.230;9.220;2023-07-13T02:28:24;99837.38;;;17.74;70.82
17260;BME280;8746;49.230;9.220;2023-07-13T02:30:49;99834.28;;;17.80;71.18
17260;BME280;8746;49.230;9.220;2023-07-13T02:33:15;99830.75;;;17.79;70.43
17260;BME280;8746;49.230;9.220;2023-07-13T02:35:40;99836.97;;;17.67;70.96
17260;BME280;8746;49.230;9.220;2023-07-13T02:38:06;99836.91;;;17.56;71.23
17260;BME280;8746;49.230;9.220;2023-07-13T02:40:31;99840.00;;;17.50;71.97
17260;BME280;8746;49.230;9.220;2023-07-13T02:42:59;99835.63;;;17.36;73.38
17260;BME280;8746;49.230;9.220;2023-07-13T02:45:25;99839.03;;;17.25;76.00
17260;BME280;8746;49.230;9.220;2023-07-13T02:47:50;99837.25;;;17.12;77.94
17260;BME280;8746;49.230;9.220;2023-07-13T02:50:16;99842.81;;;17.09;78.68
17260;BME280;8746;49.230;9.220;2023-07-13T02:52:41;99840.28;;;16.80;80.11
17260;BME280;8746;49.230;9.220;2023-07-13T02:55:07;99845.06;;;16.75;81.51
17260;BME280;8746;49.230;9.220;2023-07-13T02:57:32;99841.88;;;16.70;82.22
17260;BME280;8746;49.230;9.220;2023-07-13T02:59:59;99842.19;;;16.65;82.58
17260;BME280;8746;49.230;9.220;2023-07-13T03:02:24;99838.75;;;16.63;83.01
17260;BME280;8746;49.230;9.220;2023-07-13T03:04:50;99845.16;;;16.61;82.88
17260;BME280;8746;49.230;9.220;2023-07-13T03:07:15;99844.19;;;16.62;83.12
17260;BME280;8746;49.230;9.220;2023-07-13T03:09:41;99841.63;;;16.60;83.98
17260;BME280;8746;49.230;9.220;2023-07-13T03:12:06;99844.16;;;16.49;85.70
17260;BME280;8746;49.230;9.220;2023-07-13T03:14:32;99849.34;;;16.38;86.79
17260;BME280;8746;49.230;9.220;2023-07-13T03:16:57;99858.75;;;16.43;86.41
17260;BME280;8746;49.230;9.220;2023-07-13T03:19:22;99859.03;;;16.39;86.65
17260;BME280;8746;49.230;9.220;2023-07-13T03:21:48;99855.91;;;16.32;87.48
17260;BME280;8746;49.230;9.220;2023-07-13T03:24:13;99865.06;;;16.28;87.05
17260;BME280;8746;49.230;9.220;2023-07-13T03:26:38;99855.38;;;16.27;86.56
17260;BME280;8746;49.230;9.220;2023-07-13T03:29:04;99857.06;;;16.28;85.15
17260;BME280;8746;49.230;9.220;2023-07-13T03:31:33;99862.28;;;16.29;86.00
17260;BME280;8746;49.230;9.220;2023-07-13T03:33:59;99869.44;;;16.29;87.11
17260;BME280;8746;49.230;9.220;2023-07-13T03:36:27;99865.34;;;16.23;87.82
17260;BME280;8746;49.230;9.220;2023-07-13T03:38:56;99871.06;;;16.17;88.55
17260;BME280;8746;49.230;9.220;2023-07-13T03:41:22;99877.06;;;16.21;89.30
17260;BME280;8746;49.230;9.220;2023-07-13T03:43:48;99874.50;;;16.19;90.87
17260;BME280;8746;49.230;9.220;2023-07-13T03:46:14;99875.56;;;16.16;89.98
17260;BME280;8746;49.230;9.220;2023-07-13T03:48:40;99875.56;;;16.16;89.66
17260;BME280;8746;49.230;9.220;2023-07-13T03:51:08;99886.09;;;16.18;89.57
17260;BME280;8746;49.230;9.220;2023-07-13T03:53:35;99892.63;;;16.27;88.53
17260;BME280;8746;49.230;9.220;2023-07-13T03:56:00;99898.34;;;16.21;88.70
17260;BME280;8746;49.230;9.220;2023-07-13T04:00:56;99899.66;;;16.28;89.03
17260;BME280;8746;49.230;9.220;2023-07-13T04:03:23;99897.88;;;16.28;89.98
17260;BME280;8746;49.230;9.220;2023-07-13T04:05:49;99904.34;;;16.24;89.52
17260;BME280;8746;49.230;9.220;2023-07-13T04:08:15;99907.75;;;16.26;89.39
17260;BME280;8746;49.230;9.220;2023-07-13T04:10:40;99904.81;;;16.31;88.89
17260;BME280;8746;49.230;9.220;2023-07-13T04:13:05;99906.84;;;16.40;87.29
17260;BME280;8746;49.230;9.220;2023-07-13T04:15:31;99907.03;;;16.52;85.73
17260;BME280;8746;49.230;9.220;2023-07-13T04:17:58;99912.78;;;16.58;85.05
17260;BME280;8746;49.230;9.220;2023-07-13T04:20:25;99919.00;;;16.72;84.34
17260;BME280;8746;49.230;9.220;2023-07-13T04:22:50;99916.41;;;16.57;86.00
17260;BME280;8746;49.230;9.220;2023-07-13T04:25:16;99927.72;;;16.61;84.76
17260;BME280;8746;49.230;9.220;2023-07-13T04:27:41;99921.72;;;16.57;83.82
17260;BME280;8746;49.230;9.220;2023-07-13T04:30:07;99931.00;;;16.52;83.52
17260;BME280;8746;49.230;9.220;2023-07-13T04:32:32;99935.16;;;16.56;82.59
17260;BME280;8746;49.230;9.220;2023-07-13T04:34:58;99938.16;;;16.64;83.09
17260;BME280;8746;49.230;9.220;2023-07-13T04:37:27;99930.72;;;16.69;83.57
17260;BME280;8746;49.230;9.220;2023-07-13T04:39:54;99930.63;;;16.71;81.83
17260;BME280;8746;49.230;9.220;2023-07-13T04:42:19;99930.31;;;16.75;81.93
17260;BME280;8746;49.230;9.220;2023-07-13T04:44:52;99926.94;;;16.86;80.85
17260;BME280;8746;49.230;9.220;2023-07-13T04:47:18;99923.78;;;16.94;80.62
17260;BME280;8746;49.230;9.220;2023-07-13T04:49:44;99927.56;;;17.04;81.26
17260;BME280;8746;49.230;9.220;2023-07-13T04:52:09;99928.28;;;17.06;81.53
17260;BME280;8746;49.230;9.220;2023-07-13T04:54:35;99930.00;;;17.07;81.21
17260;BME280;8746;49.230;9.220;2023-07-13T04:57:02;99931.47;;;17.11;80.88
17260;BME280;8746;49.230;9.220;2023-07-13T04:59:28;99933.97;;;17.14;80.29
17260;BME280;8746;49.230;9.220;2023-07-13T05:01:53;99927.88;;;17.12;82.03
17260;BME280;8746;49.230;9.220;2023-07-13T05:04:18;99931.09;;;17.18;81.65
17260;BME280;8746;49.230;9.220;2023-07-13T05:06:44;99935.03;;;17.25;80.91
17260;BME280;8746;49.230;9.220;2023-07-13T05:09:09;99934.72;;;17.17;81.55
17260;BME280;8746;49.230;9.220;2023-07-13T05:11:35;99938.22;;;17.17;81.46
17260;BME280;8746;49.230;9.220;2023-07-13T05:14:00;99937.47;;;17.15;84.04
17260;BME280;8746;49.230;9.220;2023-07-13T05:16:27;99937.81;;;17.10;85.24
17260;BME280;8746;49.230;9.220;2023-07-13T05:18:53;99939.28;;;17.14;82.51
17260;BME280;8746;49.230;9.220;2023-07-13T05:21:18;99943.44;;;17.19;81.84
17260;BME280;8746;49.230;9.220;2023-07-13T05:23:43;99943.25;;;17.22;82.34
17260;BME280;8746;49.230;9.220;2023-07-13T05:26:09;99942.59;;;17.18;82.49
17260;BME280;8746;49.230;9.220;2023-07-13T05:28:35;99947.47;;;17.11;83.92
17260;BME280;8746;49.230;9.220;2023-07-13T05:31:00;99948.34;;;17.25;83.91
17260;BME280;8746;49.230;9.220;2023-07-13T05:33:26;99944.75;;;17.39;83.57
17260;BME280;8746;49.230;9.220;2023-07-13T05:35:52;99951.03;;;17.38;82.61
17260;BME280;8746;49.230;9.220;2023-07-13T05:38:17;99948.50;;;17.62;80.30
17260;BME280;8746;49.230;9.220;2023-07-13T05:40:44;99941.78;;;17.69;83.09
17260;BME280;8746;49.230;9.220;2023-07-13T05:43:10;99948.84;;;17.70;83.02
17260;BME280;8746;49.230;9.220;2023-07-13T05:45:35;99949.22;;;17.64;80.65
17260;BME280;8746;49.230;9.220;2023-07-13T05:48:00;99955.72;;;17.86;81.20
17260;BME280;8746;49.230;9.220;2023-07-13T05:50:26;99955.53;;;18.02;78.18
17260;BME280;8746;49.230;9.220;2023-07-13T05:52:52;99951.72;;;18.30;74.41
17260;BME280;8746;49.230;9.220;2023-07-13T05:55:18;99958.31;;;18.37;75.16
17260;BME280;8746;49.230;9.220;2023-07-13T05:57:43;99949.78;;;18.45;75.07
17260;BME280;8746;49.230;9.220;2023-07-13T06:00:09;99953.22;;;18.34;76.86
17260;BME280;8746;49.230;9.220;2023-07-13T06:02:35;99952.25;;;18.35;77.01
17260;BME280;8746;49.230;9.220;2023-07-13T06:05:00;99955.59;;;18.26;76.17
17260;BME280;8746;49.230;9.220;2023-07-13T06:07:25;99957.50;;;18.24;73.76
17260;BME280;8746;49.230;9.220;2023-07-13T06:09:51;99965.31;;;18.27;75.70
17260;BME280;8746;49.230;9.220;2023-07-13T06:12:16;99966.38;;;18.24;75.96
17260;BME280;8746;49.230;9.220;2023-07-13T06:14:43;99969.25;;;18.34;79.11
17260;BME280;8746;49.230;9.220;2023-07-13T06:17:09;99974.66;;;18.08;79.72
17260;BME280;8746;49.230;9.220;2023-07-13T06:19:34;99977.63;;;18.04;81.72
17260;BME280;8746;49.230;9.220;2023-07-13T06:21:59;99975.53;;;17.96;81.00
17260;BME280;8746;49.230;9.220;2023-07-13T06:24:26;99976.44;;;18.08;80.78
17260;BME280;8746;49.230;9.220;2023-07-13T06:26:51;99989.59;;;18.11;80.80
17260;BME280;8746;49.230;9.220;2023-07-13T06:29:16;99985.22;;;18.10;80.00
17260;BME280;8746;49.230;9.220;2023-07-13T06:31:42;99986.16;;;18.22;80.07
17260;BME280;8746;49.230;9.220;2023-07-13T06:34:07;99985.72;;;18.28;79.74
17260;BME280;8746;49.230;9.220;2023-07-13T06:36:33;99992.31;;;18.35;80.15
17260;BME280;8746;49.230;9.220;2023-07-13T06:38:58;99983.13;;;18.39;81.16
17260;BME280;8746;49.230;9.220;2023-07-13T06:41:24;99989.66;;;18.35;79.98
17260;BME280;8746;49.230;9.220;2023-07-13T06:43:51;99997.22;;;18.41;77.07
17260;BME280;8746;49.230;9.220;2023-07-13T06:46:17;100002.44;;;18.43;78.02
17260;BME280;8746;49.230;9.220;2023-07-13T06:48:42;100001.66;;;18.54;71.37
17260;BME280;8746;49.230;9.220;2023-07-13T06:51:08;99998.66;;;18.58;67.74
17260;BME280;8746;49.230;9.220;2023-07-13T06:53:34;100002.94;;;18.85;68.56
17260;BME280;8746;49.230;9.220;2023-07-13T06:55:59;99998.06;;;19.03;67.98
17260;BME280;8746;49.230;9.220;2023-07-13T06:58:24;100005.91;;;19.18;67.03
17260;BME280;8746;49.230;9.220;2023-07-13T07:00:51;100009.06;;;19.23;68.18
17260;BME280;8746;49.230;9.220;2023-07-13T07:03:16;100009.06;;;19.23;64.44
17260;BME280;8746;49.230;9.220;2023-07-13T07:05:42;100010.09;;;19.33;63.85
17260;BME280;8746;49.230;9.220;2023-07-13T07:08:07;100005.53;;;19.47;64.30
17260;BME280;8746;49.230;9.220;2023-07-13T07:10:33;100015.19;;;19.36;61.89
17260;BME280;8746;49.230;9.220;2023-07-13T07:12:59;100014.50;;;19.34;61.81
17260;BME280;8746;49.230;9.220;2023-07-13T07:15:25;100019.38;;;19.41;61.27
17260;BME280;8746;49.230;9.220;2023-07-13T07:17:50;100012.09;;;19.54;59.92
17260;BME280;8746;49.230;9.220;2023-07-13T07:20:15;100015.91;;;19.63;60.46
17260;BME280;8746;49.230;9.220;2023-07-13T07:22:43;100012.88;;;19.67;61.16
17260;BME280;8746;49.230;9.220;2023-07-13T07:25:09;100023.31;;;19.70;60.92
17260;BME280;8746;49.230;9.220;2023-07-13T07:27:34;100021.69;;;19.92;60.83
17260;BME280;8746;49.230;9.220;2023-07-13T07:30:00;100023.41;;;19.93;59.52
17260;BME280;8746;49.230;9.220;2023-07-13T07:32:25;100022.38;;;19.83;58.71
17260;BME280;8746;49.230;9.220;2023-07-13T07:34:50;100021.81;;;20.13;59.52
17260;BME280;8746;49.230;9.220;2023-07-13T07:37:16;100024.41;;;20.15;59.03
17260;BME280;8746;49.230;9.220;2023-07-13T07:39:43;100023.16;;;20.30;59.51
17260;BME280;8746;49.230;9.220;2023-07-13T07:42:08;100023.16;;;20.30;58.64
17260;BME280;8746;49.230;9.220;2023-07-13T07:44:34;100025.34;;;20.37;58.18
17260;BME280;8746;49.230;9.220;2023-07-13T07:47:00;100027.28;;;20.46;58.37
17260;BME280;8746;49.230;9.220;2023-07-13T07:49:26;100025.44;;;20.46;58.17
17260;BME280;8746;49.230;9.220;2023-07-13T07:51:51;100026.16;;;20.60;56.80
17260;BME280;8746;49.230;9.220;2023-07-13T07:54:17;100023.13;;;20.64;56.74
17260;BME280;8746;49.230;9.220;2023-07-13T07:56:42;100029.44;;;20.75;55.74
17260;BME280;8746;49.230;9.220;2023-07-13T07:59:08;100021.66;;;20.72;54.12
17260;BME280;8746;49.230;9.220;2023-07-13T08:01:33;100027.63;;;20.64;54.11
17260;BME280;8746;49.230;9.220;2023-07-13T08:03:58;100038.69;;;20.82;55.35
17260;BME280;8746;49.230;9.220;2023-07-13T08:06:24;100027.09;;;20.93;56.66
17260;BME280;8746;49.230;9.220;2023-07-13T08:08:50;100025.03;;;21.29;53.62
17260;BME280;8746;49.230;9.220;2023-07-13T08:11:16;100024.06;;;21.19;52.83
17260;BME280;8746;49.230;9.220;2023-07-13T08:13:41;100028.09;;;21.45;54.16
17260;BME280;8746;49.230;9.220;2023-07-13T08:16:06;100014.03;;;21.53;52.11
17260;BME280;8746;49.230;9.220;2023-07-13T08:18:32;100017.44;;;21.55;51.67
17260;BME280;8746;49.230;9.220;2023-07-13T08:20:58;100017.31;;;21.78;51.16
17260;BME280;8746;49.230;9.220;2023-07-13T08:23:24;100010.44;;;21.64;51.34
17260;BME280;8746;49.230;9.220;2023-07-13T08:25:54;100011.91;;;21.68;50.87
17260;BME280;8746;49.230;9.220;2023-07-13T08:28:20;100005.72;;;21.77;51.40
17260;BME280;8746;49.230;9.220;2023-07-13T08:30:46;100008.34;;;21.68;50.99
17260;BME280;8746;49.230;9.220;2023-07-13T08:33:17;99999.72;;;21.64;51.42
17260;BME280;8746;49.230;9.220;2023-07-13T08:35:46;100010.25;;;21.77;50.02
17260;BME280;8746;49.230;9.220;2023-07-13T08:38:12;100010.59;;;21.93;50.15
17260;BME280;8746;49.230;9.220;2023-07-13T08:40:38;100003.03;;;21.99;47.78
17260;BME280;8746;49.230;9.220;2023-07-13T08:43:04;100005.81;;;21.97;47.81
17260;BME280;8746;49.230;9.220;2023-07-13T08:45:47;100005.56;;;22.00;48.04
17260;BME280;8746;49.230;9.220;2023-07-13T08:48:27;100013.84;;;22.18;48.00
17260;BME280;8746;49.230;9.220;2023-07-13T08:53:40;100009.31;;;22.60;46.63
17260;BME280;8746;49.230;9.220;2023-07-13T08:56:16;100008.34;;;22.61;44.10
17260;BME280;8746;49.230;9.220;2023-07-13T08:58:44;100005.38;;;22.64;44.96
17260;BME280;8746;49.230;9.220;2023-07-13T09:01:47;100013.75;;;22.80;43.42
17260;BME280;8746;49.230;9.220;2023-07-13T09:04:18;100008.50;;;22.69;43.38
17260;BME280;8746;49.230;9.220;2023-07-13T09:09:30;100013.91;;;22.88;45.04
17260;BME280;8746;49.230;9.220;2023-07-13T09:14:51;100017.75;;;23.15;42.57
17260;BME280;8746;49.230;9.220;2023-07-13T09:17:22;100007.16;;;23.33;42.09
17260;BME280;8746;49.230;9.220;2023-07-13T09:19:59;100002.19;;;23.39;42.15
17260;BME280;8746;49.230;9.220;2023-07-13T09:22:27;100003.88;;;23.49;42.29
17260;BME280;8746;49.230;9.220;2023-07-13T09:25:02;100010.56;;;23.45;41.17
17260;BME280;8746;49.230;9.220;2023-07-13T09:27:39;100014.94;;;23.46;41.58
17260;BME280;8746;49.230;9.220;2023-07-13T09:32:52;100015.09;;;23.25;41.64
17260;BME280;8746;49.230;9.220;2023-07-13T09:35:26;100015.06;;;23.55;40.54
17260;BME280;8746;49.230;9.220;2023-07-13T09:37:58;100015.78;;;23.57;40.81
17260;BME280;8746;49.230;9.220;2023-07-13T09:40:30;100017.91;;;23.43;40.88
17260;BME280;8746;49.230;9.220;2023-07-13T09:43:01;100006.41;;;23.61;40.39
17260;BME280;8746;49.230;9.220;2023-07-13T09:45:30;100010.31;;;23.86;40.89
17260;BME280;8746;49.230;9.220;2023-07-13T09:48:04;100007.78;;;23.94;41.03
17260;BME280;8746;49.230;9.220;2023-07-13T09:50:30;100012.44;;;24.02;40.93
17260;BME280;8746;49.230;9.220;2023-07-13T09:52:55;100013.13;;;24.04;40.56
17260;BME280;8746;49.230;9.220;2023-07-13T09:57:51;100016.25;;;23.99;39.74
17260;BME280;8746;49.230;9.220;2023-07-13T10:00:26;100009.16;;;24.36;39.09
17260;BME280;8746;49.230;9.220;2023-07-13T10:03:16;100008.25;;;24.73;39.65
17260;BME280;8746;49.230;9.220;2023-07-13T10:05:45;100005.25;;;24.94;38.31
17260;BME280;8746;49.230;9.220;2023-07-13T10:08:25;100016.72;;;24.78;37.78
17260;BME280;8746;49.230;9.220;2023-07-13T10:11:11;100021.44;;;24.48;37.12
17260;BME280;8746;49.230;9.220;2023-07-13T10:13:43;100011.97;;;24.44;38.66
17260;BME280;8746;49.230;9.220;2023-07-13T10:16:10;100009.25;;;24.72;37.28
17260;BME280;8746;49.230;9.220;2023-07-13T10:21:16;100011.16;;;24.62;36.92
17260;BME280;8746;49.230;9.220;2023-07-13T10:23:46;100015.19;;;24.76;37.00
17260;BME280;8746;49.230;9.220;2023-07-13T10:26:21;100006.88;;;25.05;36.80
17260;BME280;8746;49.230;9.220;2023-07-13T10:28:52;100013.69;;;25.09;35.96
17260;BME280;8746;49.230;9.220;2023-07-13T10:31:20;100006.88;;;25.59;36.30
17260;BME280;8746;49.230;9.220;2023-07-13T10:33:46;100019.78;;;25.48;34.86
17260;BME280;8746;49.230;9.220;2023-07-13T10:36:20;100006.00;;;24.69;36.32
17260;BME280;8746;49.230;9.220;2023-07-13T10:38:50;100013.50;;;24.93;36.83
17260;BME280;8746;49.230;9.220;2023-07-13T10:41:19;100004.72;;;24.91;36.46
17260;BME280;8746;49.230;9.220;2023-07-13T10:43:49;100003.63;;;25.56;36.18
17260;BME280;8746;49.230;9.220;2023-07-13T10:46:17;100001.47;;;26.20;34.36
17260;BME280;8746;49.230;9.220;2023-07-13T10:48:50;100004.22;;;26.29;33.67
17260;BME280;8746;49.230;9.220;2023-07-13T10:51:18;100013.63;;;25.64;34.87
17260;BME280;8746;49.230;9.220;2023-07-13T10:53:46;100008.88;;;25.57;35.99
17260;BME280;8746;49.230;9.220;2023-07-13T10:56:22;99999.28;;;26.16;34.20
17260;BME280;8746;49.230;9.220;2023-07-13T10:59:11;99995.63;;;26.93;34.55
17260;BME280;8746;49.230;9.220;2023-07-13T11:01:56;100001.63;;;26.62;33.64
17260;BME280;8746;49.230;9.220;2023-07-13T11:04:23;100010.09;;;26.59;33.97
17260;BME280;8746;49.230;9.220;2023-07-13T11:07:06;99997.22;;;26.61;32.86
17260;BME280;8746;49.230;9.220;2023-07-13T11:09:38;99997.19;;;27.36;32.34
17260;BME280;8746;49.230;9.220;2023-07-13T11:12:25;99991.78;;;27.28;31.42
17260;BME280;8746;49.230;9.220;2023-07-13T11:17:47;99980.34;;;26.59;31.76
17260;BME280;8746;49.230;9.220;2023-07-13T11:25:26;99968.75;;;27.24;33.63
17260;BME280;8746;49.230;9.220;2023-07-13T11:33:16;99972.47;;;28.21;30.91
17260;BME280;8746;49.230;9.220;2023-07-13T11:36:04;99988.53;;;28.70;29.02
17260;BME280;8746;49.230;9.220;2023-07-13T11:38:32;99968.38;;;29.34;29.68
17260;BME280;8746;49.230;9.220;2023-07-13T11:41:01;99976.75;;;28.46;29.77
17260;BME280;8746;49.230;9.220;2023-07-13T11:43:28;99978.91;;;27.55;31.37
17260;BME280;8746;49.230;9.220;2023-07-13T11:45:54;99971.56;;;26.65;31.74
17260;BME280;8746;49.230;9.220;2023-07-13T11:48:27;99973.66;;;27.29;33.76
17260;BME280;8746;49.230;9.220;2023-07-13T11:50:59;99970.19;;;26.61;33.10
17260;BME280;8746;49.230;9.220;2023-07-13T11:53:27;99966.19;;;26.30;34.69
17260;BME280;8746;49.230;9.220;2023-07-13T11:55:53;99963.16;;;26.25;35.59
17260;BME280;8746;49.230;9.220;2023-07-13T11:58:22;99972.31;;;27.25;33.37
17260;BME280;8746;49.230;9.220;2023-07-13T12:00:49;99980.16;;;28.01;31.33
17260;BME280;8746;49.230;9.220;2023-07-13T12:03:21;99983.44;;;26.88;31.96
17260;BME280;8746;49.230;9.220;2023-07-13T12:06:26;99980.75;;;26.37;33.70
17260;BME280;8746;49.230;9.220;2023-07-13T12:09:02;99977.59;;;26.50;33.69
17260;BME280;8746;49.230;9.220;2023-07-13T12:11:29;99984.91;;;26.15;35.21
17260;BME280;8746;49.230;9.220;2023-07-13T12:13:56;99985.38;;;26.11;35.83
17260;BME280;8746;49.230;9.220;2023-07-13T12:16:31;99976.19;;;27.63;32.88
17260;BME280;8746;49.230;9.220;2023-07-13T12:18:58;99969.69;;;28.69;31.09
17260;BME280;8746;49.230;9.220;2023-07-13T12:21:38;99987.22;;;29.36;30.07
17260;BME280;8746;49.230;9.220;2023-07-13T12:24:04;99976.22;;;29.82;30.60
17260;BME280;8746;49.230;9.220;2023-07-13T12:26:31;99979.97;;;30.78;29.14
17260;BME280;8746;49.230;9.220;2023-07-13T12:28:59;99980.69;;;31.30;27.69
17260;BME280;8746;49.230;9.220;2023-07-13T12:34:21;99966.31;;;31.14;28.04
17260;BME280;8746;49.230;9.220;2023-07-13T12:36:48;99956.78;;;29.55;29.42
17260;BME280;8746;49.230;9.220;2023-07-13T12:39:35;99965.50;;;30.99;28.58
17260;BME280;8746;49.230;9.220;2023-07-13T12:42:18;99958.13;;;32.00;27.16
17260;BME280;8746;49.230;9.220;2023-07-13T12:44:57;99976.06;;;30.65;26.90
17260;BME280;8746;49.230;9.220;2023-07-13T12:47:24;99972.91;;;30.83;28.34
17260;BME280;8746;49.230;9.220;2023-07-13T12:49:54;99982.88;;;31.13;27.58
17260;BME280;8746;49.230;9.220;2023-07-13T12:52:33;99992.88;;;28.79;29.99
17260;BME280;8746;49.230;9.220;2023-07-13T12:55:05;99986.41;;;28.01;31.83
17260;BME280;8746;49.230;9.220;2023-07-13T12:57:31;99986.94;;;27.96;33.03
17260;BME280;8746;49.230;9.220;2023-07-13T12:59:56;99980.59;;;28.60;31.18
17260;BME280;8746;49.230;9.220;2023-07-13T13:02:30;99973.78;;;29.87;30.20
17260;BME280;8746;49.230;9.220;2023-07-13T13:04:58;99979.97;;;29.81;29.78
17260;BME280;8746;49.230;9.220;2023-07-13T13:07:24;99974.59;;;28.65;30.38
17260;BME280;8746;49.230;9.220;2023-07-13T13:09:50;99979.75;;;27.31;33.25
17260;BME280;8746;49.230;9.220;2023-07-13T13:12:17;99985.00;;;26.99;32.71
17260;BME280;8746;49.230;9.220;2023-07-13T13:14:43;99971.88;;;28.73;30.13
17260;BME280;8746;49.230;9.220;2023-07-13T13:17:19;99965.50;;;30.56;27.91
17260;BME280;8746;49.230;9.220;2023-07-13T13:19:45;99971.84;;;31.06;25.21
17260;BME280;8746;49.230;9.220;2023-07-13T13:22:11;99966.03;;;31.31;26.40
17260;BME280;8746;49.230;9.220;2023-07-13T13:24:36;99976.72;;;31.61;26.64
17260;BME280;8746;49.230;9.220;2023-07-13T13:27:02;99978.25;;;30.40;27.21
17260;BME280;8746;49.230;9.220;2023-07-13T13:29:27;99979.97;;;30.78;27.92
17260;BME280;8746;49.230;9.220;2023-07-13T13:31:54;99972.53;;;31.58;26.38
17260;BME280;8746;49.230;9.220;2023-07-13T13:34:20;99974.94;;;31.68;25.98
17260;BME280;8746;49.230;9.220;2023-07-13T13:36:48;99981.91;;;30.47;27.72
17260;BME280;8746;49.230;9.220;2023-07-13T13:39:25;99983.13;;;28.30;30.11
17260;BME280;8746;49.230;9.220;2023-07-13T13:41:53;99991.09;;;27.01;31.87
17260;BME280;8746;49.230;9.220;2023-07-13T13:44:20;99996.81;;;26.82;33.19
17260;BME280;8746;49.230;9.220;2023-07-13T13:46:55;99979.53;;;27.82;31.86
17260;BME280;8746;49.230;9.220;2023-07-13T13:49:24;99980.88;;;30.48;27.51